Time;durP1;ratioP1;P1;durP2;ratioP2;P2;SDS_P1;SDS_P2;PMS_P1;PMS_P2;Temp;Humidity;BMP_temperature;BMP_pressure;BME280_temperature;BME280_humidity;BME280_pressure;Samples;Min_cycle;Max_cycle;Signal;HPM_P1;HPM_P2
2023/07/14 00:01:55;;;;;;;4.90;2.85;;;;;;;24.99;44.49;101833.31;5014476;28;20049;-29
2023/07/14 00:04:27;;;;;;;3.83;2.40;;;;;;;24.98;44.07;101831.63;5014004;28;20416;-29
2023/07/14 00:06:54;;;;;;;4.03;2.30;;;;;;;24.98;44.49;101833.50;5010916;28;20107;-29
2023/07/14 00:09:25;;;;;;;4.38;2.95;;;;;;;24.98;44.26;101833.50;5013670;28;20445;-29
2023/07/14 00:11:52;;;;;;;7.40;2.45;;;;;;;24.97;44.43;101829.97;5013745;28;20058;-29
2023/07/14 00:14:19;;;;;;;4.22;2.50;;;;;;;24.96;44.41;101833.66;5014554;28;20073;-29
2023/07/14 00:16:46;;;;;;;4.15;2.60;;;;;;;24.95;44.19;101821.13;5012508;28;20475;-29
2023/07/14 00:19:15;;;;;;;4.05;2.28;;;;;;;24.95;44.13;101818.41;5015969;28;20056;-31
2023/07/14 00:21:43;;;;;;;5.28;2.40;;;;;;;24.96;43.94;101824.69;5014898;28;20569;-26
2023/07/14 00:24:15;;;;;;;4.30;2.70;;;;;;;24.94;44.22;101816.75;5013726;28;20053;-28
2023/07/14 00:26:50;;;;;;;4.57;2.55;;;;;;;24.93;43.92;101822.34;5002529;28;20095;-28
2023/07/14 00:29:25;;;;;;;2.95;2.28;;;;;;;24.93;44.47;101814.22;5005004;28;20045;-28
2023/07/14 00:31:52;;;;;;;4.38;2.60;;;;;;;24.93;44.51;101814.22;5012979;28;20034;-28
2023/07/14 00:34:19;;;;;;;3.80;2.65;;;;;;;24.92;44.23;101812.50;5011651;28;20433;-28
2023/07/14 00:36:45;;;;;;;4.40;2.50;;;;;;;24.92;44.02;101809.78;5007711;28;20319;-28
2023/07/14 00:39:12;;;;;;;4.00;2.10;;;;;;;24.91;44.09;101816.25;5006611;28;20049;-28
2023/07/14 00:41:38;;;;;;;3.85;1.88;;;;;;;24.91;44.38;101808.94;5006060;28;20056;-28
2023/07/14 00:44:05;;;;;;;3.88;2.35;;;;;;;24.89;44.41;101811.00;5011403;28;20316;-27
2023/07/14 00:46:32;;;;;;;4.80;2.65;;;;;;;24.89;44.18;101804.75;5008875;28;20101;-30
2023/07/14 00:49:05;;;;;;;3.50;2.22;;;;;;;24.89;44.28;101802.88;5007773;28;20050;-30
2023/07/14 00:51:35;;;;;;;4.50;2.08;;;;;;;24.89;44.64;101807.44;5011620;28;20119;-30
2023/07/14 00:54:02;;;;;;;2.85;2.25;;;;;;;24.87;44.40;101807.59;5007349;28;20434;-30
2023/07/14 00:56:45;;;;;;;3.78;2.28;;;;;;;24.86;44.67;101806.75;5010634;28;20057;-31
2023/07/14 00:59:15;;;;;;;3.23;2.00;;;;;;;24.87;44.10;101808.44;5007791;28;20442;-30
2023/07/14 01:02:19;;;;;;;5.78;2.40;;;;;;;24.85;44.12;101799.66;5009268;28;20050;-30
2023/07/14 01:04:51;;;;;;;3.30;2.03;;;;;;;24.87;44.42;101799.47;5009040;28;20104;-30
2023/07/14 01:07:22;;;;;;;2.85;2.10;;;;;;;24.86;44.34;101800.50;5004585;28;20081;-30
2023/07/14 01:09:52;;;;;;;3.28;1.95;;;;;;;24.84;44.19;101795.25;5009964;28;20385;-30
2023/07/14 01:12:22;;;;;;;2.67;2.00;;;;;;;24.84;44.64;101797.09;5008838;28;20046;-30
2023/07/14 01:14:52;;;;;;;3.78;2.20;;;;;;;24.84;44.39;101787.13;5010402;28;20079;-30
2023/07/14 01:17:21;;;;;;;3.72;2.13;;;;;;;24.83;44.24;101784.56;5007311;28;20060;-30
2023/07/14 01:19:57;;;;;;;3.17;2.00;;;;;;;24.83;44.61;101784.56;5010030;28;20050;-30
2023/07/14 01:22:35;;;;;;;3.45;2.20;;;;;;;24.82;44.36;101785.59;5007377;28;20126;-30
2023/07/14 01:25:07;;;;;;;4.65;2.50;;;;;;;24.82;44.60;101788.31;5007007;28;20136;-30
2023/07/14 01:27:34;;;;;;;3.00;2.20;;;;;;;24.83;44.74;101784.56;5010952;28;20054;-30
2023/07/14 01:30:02;;;;;;;3.15;2.05;;;;;;;24.81;44.24;101778.50;5011906;28;20057;-30
2023/07/14 01:32:38;;;;;;;2.60;1.80;;;;;;;24.80;44.18;101783.03;5012701;28;20104;-30
2023/07/14 01:35:07;;;;;;;3.70;1.98;;;;;;;24.79;44.42;101773.22;5012521;28;20058;-30
2023/07/14 01:37:35;;;;;;;3.10;1.90;;;;;;;24.80;44.79;101777.63;5009769;28;20054;-30
2023/07/14 01:40:17;;;;;;;3.67;2.25;;;;;;;24.78;44.48;101770.72;5011717;28;20049;-30
2023/07/14 01:42:58;;;;;;;3.75;1.83;;;;;;;24.78;44.81;101765.28;5011884;28;20124;-28
2023/07/14 01:45:31;;;;;;;4.05;2.15;;;;;;;24.79;44.31;101773.22;5012805;28;20373;-27
2023/07/14 01:48:00;;;;;;;4.63;2.23;;;;;;;24.78;44.78;101773.41;5009843;28;20046;-27
2023/07/14 01:50:33;;;;;;;3.47;2.13;;;;;;;24.78;44.69;101773.41;5013134;28;20522;-28
2023/07/14 01:53:05;;;;;;;3.47;1.80;;;;;;;24.77;44.84;101775.28;5010836;28;20054;-29
2023/07/14 01:55:34;;;;;;;4.28;1.90;;;;;;;24.77;44.85;101769.03;5011554;28;20129;-30
2023/07/14 01:58:08;;;;;;;5.57;1.98;;;;;;;24.76;44.35;101764.59;5008000;28;20044;-30
2023/07/14 02:00:35;;;;;;;;;;;;;;;24.74;44.33;101763.94;5003252;28;20290;-30
2023/07/14 02:03:06;;;;;;;2.63;2.00;;;;;;;24.78;44.31;101771.53;5005694;28;19921;-30
2023/07/14 02:05:36;;;;;;;3.10;1.92;;;;;;;24.75;44.92;101765.63;5010656;28;20050;-30
2023/07/14 02:08:05;;;;;;;4.80;2.35;;;;;;;24.74;44.86;101763.94;5006856;28;20049;-30
2023/07/14 02:10:32;;;;;;;2.88;1.50;;;;;;;24.73;44.67;101757.69;5006443;28;20046;-29
2023/07/14 02:13:01;;;;;;;4.40;2.03;;;;;;;24.71;44.93;101759.72;5005471;28;20058;-28
2023/07/14 02:15:31;;;;;;;3.28;1.77;;;;;;;24.72;44.59;101765.97;5004948;28;20333;-29
2023/07/14 02:18:00;;;;;;;2.40;1.60;;;;;;;24.70;44.09;101768.88;5005030;28;20204;-29
2023/07/14 02:20:37;;;;;;;4.43;1.50;;;;;;;24.69;44.96;101764.47;5009262;28;20096;-29
2023/07/14 02:23:09;;;;;;;2.85;1.60;;;;;;;24.69;44.41;101760.94;5006807;28;20087;-29
2023/07/14 02:25:42;;;;;;;3.58;1.80;;;;;;;24.68;44.63;101754.63;5009535;28;20461;-28
2023/07/14 02:28:10;;;;;;;2.95;1.70;;;;;;;24.68;44.42;101757.34;5009900;28;20688;-29
2023/07/14 02:30:37;;;;;;;2.00;1.50;;;;;;;24.67;44.86;101758.38;5011822;28;20103;-28
2023/07/14 02:33:24;;;;;;;3.92;1.90;;;;;;;24.64;44.78;101756.00;5010472;28;20042;-29
2023/07/14 02:36:03;;;;;;;2.30;1.60;;;;;;;24.64;44.45;101753.28;5011436;28;20054;-28
2023/07/14 02:38:30;;;;;;;2.63;1.40;;;;;;;24.64;44.80;101745.16;5008369;28;20045;-28
2023/07/14 02:41:05;;;;;;;3.65;2.17;;;;;;;24.63;44.44;101754.31;5009238;28;20052;-28
2023/07/14 02:43:32;;;;;;;4.40;1.67;;;;;;;24.63;44.46;101757.03;5009562;28;20512;-28
2023/07/14 02:46:06;;;;;;;2.35;1.70;;;;;;;24.61;44.66;101749.09;5009755;28;20053;-29
2023/07/14 02:48:40;;;;;;;2.90;1.73;;;;;;;24.60;44.30;101744.69;5013111;28;20046;-28
2023/07/14 02:51:07;;;;;;;2.90;1.75;;;;;;;24.60;44.76;101736.56;5016490;28;20049;-28
2023/07/14 02:53:34;;;;;;;2.67;1.60;;;;;;;24.59;44.89;101742.97;5014908;28;20136;-29
2023/07/14 02:56:02;;;;;;;3.72;1.70;;;;;;;24.59;44.74;101744.84;5014033;28;20074;-29
2023/07/14 02:58:29;;;;;;;2.80;1.77;;;;;;;24.57;44.62;101747.75;5014722;28;20046;-29
2023/07/14 03:00:56;;;;;;;2.05;1.40;;;;;;;24.58;45.01;101743.16;5014649;28;20084;-28
2023/07/14 03:03:23;;;;;;;2.60;1.35;;;;;;;24.57;44.83;101746.91;5014038;28;20045;-28
2023/07/14 03:05:51;;;;;;;1.95;1.40;;;;;;;24.56;44.90;101742.47;5014336;28;20050;-28
2023/07/14 03:08:18;;;;;;;2.05;1.33;;;;;;;24.56;45.08;101747.91;5013519;28;20096;-29
2023/07/14 03:10:47;;;;;;;2.20;1.50;;;;;;;24.55;44.92;101754.34;5012033;28;20053;-28
2023/07/14 03:13:16;;;;;;;3.53;1.85;;;;;;;24.55;44.80;101746.22;5013839;28;20046;-28
2023/07/14 03:15:43;;;;;;;1.95;1.45;;;;;;;24.54;44.59;101748.09;5012383;28;20350;-29
2023/07/14 03:18:10;;;;;;;3.88;1.80;;;;;;;24.53;44.36;101751.00;5014160;28;20049;-29
2023/07/14 03:20:37;;;;;;;4.05;1.60;;;;;;;24.53;45.16;101745.56;5014732;28;20314;-28
2023/07/14 03:23:04;;;;;;;2.35;1.52;;;;;;;24.52;44.95;101741.13;5013065;28;20359;-28
2023/07/14 03:25:33;;;;;;;4.30;1.98;;;;;;;24.50;44.68;101733.19;5012728;28;20053;-28
2023/07/14 03:28:03;;;;;;;1.95;1.30;;;;;;;24.51;45.16;101732.16;5012473;28;20081;-28
2023/07/14 03:30:36;;;;;;;2.58;1.40;;;;;;;24.50;44.80;101730.50;5019988;28;20357;-28
2023/07/14 03:33:03;;;;;;;3.85;1.77;;;;;;;24.50;44.76;101735.91;5016520;28;20638;-29
2023/07/14 03:35:29;;;;;;;2.90;1.55;;;;;;;24.50;44.57;101732.34;5018889;28;20461;-28
2023/07/14 03:37:56;;;;;;;2.25;1.45;;;;;;;24.49;44.54;101736.94;5015574;28;20137;-29
2023/07/14 03:40:23;;;;;;;2.70;1.52;;;;;;;24.47;45.19;101728.13;5012525;28;20395;-28
2023/07/14 03:42:50;;;;;;;3.97;1.67;;;;;;;24.47;44.80;101725.41;5015879;28;20107;-28
2023/07/14 03:45:16;;;;;;;2.72;1.45;;;;;;;24.46;44.91;101726.44;5016225;28;20053;-28
2023/07/14 03:47:43;;;;;;;2.97;1.50;;;;;;;24.46;44.71;101731.84;5011144;28;20097;-28
2023/07/14 03:50:13;;;;;;;2.53;1.40;;;;;;;24.46;44.86;101734.56;5017852;28;20127;-28
2023/07/14 03:52:41;;;;;;;2.40;1.55;;;;;;;24.46;44.86;101729.16;5008752;28;20112;-28
2023/07/14 03:55:09;;;;;;;2.55;1.17;;;;;;;24.46;45.19;101731.00;5007912;28;20259;-28
2023/07/14 03:57:36;;;;;;;2.33;1.40;;;;;;;24.44;45.17;101733.03;5009127;28;20096;-28
2023/07/14 04:00:23;;;;;;;4.55;1.42;;;;;;;24.45;45.33;101729.34;5004731;28;20436;-28
2023/07/14 04:02:49;;;;;;;3.17;1.40;;;;;;;24.44;44.84;101731.16;5008521;28;20627;-28
2023/07/14 04:05:16;;;;;;;3.72;1.60;;;;;;;24.44;44.58;101727.63;5013740;28;20429;-28
2023/07/14 04:07:43;;;;;;;2.55;1.40;;;;;;;24.43;45.12;101726.78;5009725;28;20401;-29
2023/07/14 04:10:11;;;;;;;4.78;1.60;;;;;;;24.44;45.28;101724.91;5015110;28;20157;-29
2023/07/14 04:12:38;;;;;;;4.15;1.60;;;;;;;24.43;44.85;101724.06;5015815;28;20128;-29
2023/07/14 04:15:05;;;;;;;5.07;1.67;;;;;;;24.41;45.18;101720.69;5011386;28;20124;-29
2023/07/14 04:17:36;;;;;;;6.00;2.53;;;;;;;24.43;44.79;101718.66;5004001;28;20046;-29
2023/07/14 04:20:05;;;;;;;3.78;1.67;;;;;;;24.43;45.47;101717.81;5012908;28;20072;-28
2023/07/14 04:22:32;;;;;;;4.75;1.92;;;;;;;24.42;45.04;101719.69;5018185;28;20047;-28
2023/07/14 04:24:59;;;;;;;3.65;2.08;;;;;;;24.42;45.14;101722.38;5014684;28;20056;-28
2023/07/14 04:27:26;;;;;;;2.92;1.95;;;;;;;24.41;45.21;101720.69;5012728;28;20049;-28
2023/07/14 04:29:53;;;;;;;4.95;2.17;;;;;;;24.40;45.06;101719.00;5004408;28;20046;-28
2023/07/14 04:32:20;;;;;;;5.28;2.50;;;;;;;24.41;44.90;101726.13;5012951;28;20054;-28
2023/07/14 04:34:49;;;;;;;3.47;2.08;;;;;;;24.40;45.06;101719.00;5012490;28;20670;-28
2023/07/14 04:37:16;;;;;;;3.92;2.20;;;;;;;24.40;44.66;101719.00;5009212;28;20045;-29
2023/07/14 04:39:44;;;;;;;4.72;2.50;;;;;;;24.40;44.72;101721.69;5011506;28;20096;-28
2023/07/14 04:42:12;;;;;;;3.40;2.45;;;;;;;24.40;44.86;101719.00;5011507;28;20465;-29
2023/07/14 04:44:39;;;;;;;4.07;2.20;;;;;;;24.40;44.90;101720.84;5011027;28;20430;-28
2023/07/14 04:47:06;;;;;;;3.50;2.00;;;;;;;24.41;45.01;101712.56;5012963;28;20077;-28
2023/07/14 04:49:33;;;;;;;2.83;1.90;;;;;;;24.40;45.08;101713.56;5013474;28;20053;-28
2023/07/14 04:52:00;;;;;;;3.75;1.88;;;;;;;24.42;45.10;101724.25;5013947;28;20116;-28
2023/07/14 04:54:28;;;;;;;4.90;1.90;;;;;;;24.43;45.33;101717.81;5011926;28;20050;-29
2023/07/14 04:56:54;;;;;;;3.53;2.10;;;;;;;24.43;44.55;101715.94;5016593;28;20111;-29
2023/07/14 04:59:21;;;;;;;3.63;2.00;;;;;;;24.44;45.28;101716.78;5014891;28;20073;-27
2023/07/14 05:01:48;;;;;;;4.43;2.08;;;;;;;24.46;44.47;101709.34;5015939;28;20134;-28
2023/07/14 05:04:14;;;;;;;3.22;1.70;;;;;;;24.47;44.49;101711.84;5016994;28;20050;-28
2023/07/14 05:06:41;;;;;;;4.88;2.10;;;;;;;24.48;44.70;101707.28;5017914;28;20104;-28
2023/07/14 05:09:10;;;;;;;2.05;1.40;;;;;;;24.50;44.99;101702.53;5011647;28;20050;-28
2023/07/14 05:11:38;;;;;;;2.92;1.67;;;;;;;24.51;44.59;101709.66;5015308;28;20057;-29
2023/07/14 05:14:06;;;;;;;3.80;1.70;;;;;;;24.52;44.99;101708.63;5008457;28;20049;-29
2023/07/14 05:16:32;;;;;;;3.95;2.13;;;;;;;24.52;45.05;101706.78;5010931;28;20088;-29
2023/07/14 05:18:59;;;;;;;4.93;1.75;;;;;;;24.54;44.92;101712.84;5016348;28;20395;-28
2023/07/14 05:21:26;;;;;;;2.70;1.40;;;;;;;24.55;44.94;101708.28;5017333;28;20099;-29
2023/07/14 05:23:52;;;;;;;2.75;1.67;;;;;;;24.56;44.43;101696.41;5015696;28;20099;-29
2023/07/14 05:26:19;;;;;;;2.63;1.63;;;;;;;24.58;44.43;101706.06;5012656;28;20068;-28
2023/07/14 05:28:46;;;;;;;4.13;2.03;;;;;;;24.60;44.57;101698.59;5013399;28;20127;-29
2023/07/14 05:31:12;;;;;;;2.40;1.55;;;;;;;24.61;44.28;101694.03;5016532;28;20057;-28
2023/07/14 05:33:39;;;;;;;5.00;1.90;;;;;;;24.62;44.13;101699.25;5017235;28;20042;-28
2023/07/14 05:36:06;;;;;;;2.20;1.55;;;;;;;24.63;44.63;101692.81;5014635;28;20429;-29
2023/07/14 05:38:33;;;;;;;3.03;1.60;;;;;;;24.65;44.64;101689.09;5012822;28;20052;-28
2023/07/14 05:40:59;;;;;;;3.50;2.20;;;;;;;24.65;44.69;101684.53;5006801;28;20132;-29
2023/07/14 05:43:27;;;;;;;3.45;2.00;;;;;;;24.67;44.51;101677.03;5011963;28;20141;-29
2023/07/14 05:45:54;;;;;;;4.03;1.98;;;;;;;24.70;44.29;101686.69;5014179;28;20050;-29
2023/07/14 05:48:22;;;;;;;4.32;1.75;;;;;;;24.71;44.27;101688.38;5018567;28;20398;-29
2023/07/14 05:50:48;;;;;;;4.93;2.40;;;;;;;24.72;44.40;101685.47;5017530;28;20053;-29
2023/07/14 05:53:17;;;;;;;3.72;1.70;;;;;;;24.74;44.51;101683.44;5010266;28;20046;-29
2023/07/14 05:55:44;;;;;;;3.40;1.73;;;;;;;24.76;44.47;101691.38;5013904;28;20049;-30
2023/07/14 05:58:11;;;;;;;5.00;2.33;;;;;;;24.78;44.36;101689.38;5014067;28;20054;-29
2023/07/14 06:00:38;;;;;;;6.57;2.33;;;;;;;24.78;44.12;101684.78;5014853;28;20053;-29
2023/07/14 06:03:10;;;;;;;5.18;1.92;;;;;;;24.79;44.16;101688.34;5013093;28;20084;-29
2023/07/14 06:05:37;;;;;;;4.05;2.28;;;;;;;24.79;44.20;101682.91;5013984;28;20056;-28
2023/07/14 06:08:04;;;;;;;6.90;1.98;;;;;;;24.80;43.81;101681.88;5014272;28;20449;-28
2023/07/14 06:10:32;;;;;;;4.75;1.92;;;;;;;24.79;44.04;101680.19;5013677;28;20132;-29
2023/07/14 06:13:12;;;;;;;4.72;1.80;;;;;;;24.78;43.67;101684.78;5013477;28;20565;-30
2023/07/14 06:15:57;;;;;;;4.13;1.90;;;;;;;24.78;43.93;101681.22;5011866;28;20056;-31
2023/07/14 06:18:24;;;;;;;4.13;1.73;;;;;;;24.78;44.24;101681.22;5006554;28;20080;-29
2023/07/14 06:20:51;;;;;;;2.83;1.70;;;;;;;24.77;44.29;101685.81;5016404;28;20108;-29
2023/07/14 06:23:17;;;;;;;4.78;1.88;;;;;;;24.76;43.99;101678.69;5019951;28;20046;-29
2023/07/14 06:25:44;;;;;;;4.72;1.88;;;;;;;24.75;44.10;101677.00;5017027;28;20049;-29
2023/07/14 06:28:11;;;;;;;4.88;1.73;;;;;;;24.76;43.84;101670.53;5011498;28;20426;-29
2023/07/14 06:30:38;;;;;;;5.07;1.60;;;;;;;24.75;43.87;101668.88;5012535;28;20073;-29
2023/07/14 06:33:04;;;;;;;6.35;2.20;;;;;;;24.74;44.34;101674.47;5013587;28;20046;-29
2023/07/14 06:35:34;;;;;;;4.47;1.92;;;;;;;24.74;44.03;101674.47;5011274;28;20045;-29
2023/07/14 06:38:01;;;;;;;5.22;2.13;;;;;;;24.74;44.44;101677.19;5010698;28;20089;-28
2023/07/14 06:40:27;;;;;;;3.58;1.80;;;;;;;24.74;44.14;101671.75;5013281;28;20156;-29
2023/07/14 06:42:55;;;;;;;3.22;1.88;;;;;;;24.73;44.32;101667.38;5012664;28;20245;-28
2023/07/14 06:45:22;;;;;;;5.65;1.88;;;;;;;24.74;44.18;101666.34;5009761;28;20061;-28
2023/07/14 06:47:49;;;;;;;3.03;1.67;;;;;;;24.74;44.02;101663.63;5013328;28;20050;-28
2023/07/14 06:50:15;;;;;;;3.40;1.60;;;;;;;24.74;44.08;101660.91;5012284;28;20042;-29
2023/07/14 06:52:44;;;;;;;3.70;1.70;;;;;;;24.74;43.88;101660.91;5013974;28;20046;-29
2023/07/14 06:55:11;;;;;;;3.83;2.00;;;;;;;24.74;44.04;101658.22;5011384;28;20099;-29
2023/07/14 06:57:38;;;;;;;3.22;1.73;;;;;;;24.74;43.82;101655.50;5014850;28;20057;-28
2023/07/14 07:00:09;;;;;;;4.75;1.67;;;;;;;24.74;44.33;101653.63;5014614;28;20050;-29
2023/07/14 07:02:36;;;;;;;3.92;1.75;;;;;;;24.75;43.96;101659.88;5013554;28;20065;-30
2023/07/14 07:05:05;;;;;;;6.72;2.10;;;;;;;24.75;44.63;101652.59;5014701;28;20046;-30
2023/07/14 07:07:32;;;;;;;3.63;1.95;;;;;;;24.74;44.60;101659.03;5011036;28;20050;-30
2023/07/14 07:09:59;;;;;;;4.65;2.03;;;;;;;24.75;44.55;101652.59;5013693;28;20049;-30
2023/07/14 07:12:26;;;;;;;3.40;1.95;;;;;;;24.76;44.25;101650.72;5013114;28;20732;-30
2023/07/14 07:14:53;;;;;;;4.82;1.88;;;;;;;24.76;44.62;101648.84;5016138;28;20100;-30
2023/07/14 07:17:19;;;;;;;4.05;1.95;;;;;;;24.77;43.97;101645.13;5012071;28;20049;-30
2023/07/14 07:19:46;;;;;;;3.28;2.25;;;;;;;24.77;44.37;101645.13;5012760;28;20046;-30
2023/07/14 07:22:13;;;;;;;5.82;2.00;;;;;;;24.78;44.35;101641.41;5010463;28;20081;-30
2023/07/14 07:24:39;;;;;;;3.72;1.95;;;;;;;24.78;44.06;101646.81;5008954;28;20054;-30
2023/07/14 07:27:06;;;;;;;5.43;1.90;;;;;;;24.79;44.06;101637.66;5015217;28;20128;-30
2023/07/14 07:29:33;;;;;;;7.70;2.30;;;;;;;24.79;44.46;101640.38;5012302;28;20136;-30
2023/07/14 07:31:59;;;;;;;4.57;1.85;;;;;;;24.79;44.49;101639.53;5013331;28;20207;-30
2023/07/14 07:34:26;;;;;;;4.20;2.17;;;;;;;24.82;44.09;101636.47;5014062;28;20045;-31
2023/07/14 07:36:53;;;;;;;6.05;2.40;;;;;;;24.82;44.54;101640.00;5016235;28;20049;-30
2023/07/14 07:39:20;;;;;;;4.50;2.28;;;;;;;24.83;44.27;101627.28;5011121;28;20049;-30
2023/07/14 07:41:46;;;;;;;7.00;2.28;;;;;;;24.85;44.57;101626.09;5015390;28;20054;-30
2023/07/14 07:44:13;;;;;;;4.40;2.30;;;;;;;24.88;44.32;101633.00;5010312;28;20442;-30
2023/07/14 07:46:40;;;;;;;5.53;2.70;;;;;;;24.89;44.37;101634.72;5015360;28;20062;-30
2023/07/14 07:49:07;;;;;;;3.53;2.00;;;;;;;24.91;44.32;101631.81;5022211;28;20421;-30
2023/07/14 07:51:34;;;;;;;5.35;2.28;;;;;;;24.92;43.95;101626.22;5020931;28;20349;-30
2023/07/14 07:54:00;;;;;;;4.22;1.88;;;;;;;24.94;44.51;101623.34;5016654;28;20048;-30
2023/07/14 07:56:27;;;;;;;6.53;2.33;;;;;;;24.94;43.98;101618.75;5017474;28;20119;-28
2023/07/14 07:58:53;;;;;;;7.40;2.60;;;;;;;24.96;44.03;101615.84;5019519;28;20037;-28
2023/07/14 08:01:24;;;;;;;4.55;2.28;;;;;;;24.98;44.23;101619.22;5023945;28;20499;-28
2023/07/14 08:03:51;;;;;;;4.88;2.65;;;;;;;25.00;44.10;101625.31;5020071;28;20049;-28
2023/07/14 08:06:18;;;;;;;5.90;2.28;;;;;;;25.00;43.84;101622.59;5021569;28;20221;-28
2023/07/14 08:08:45;;;;;;;5.75;2.47;;;;;;;25.01;43.93;101625.16;5021266;28;20046;-28
2023/07/14 08:11:13;;;;;;;7.85;2.50;;;;;;;25.02;44.35;101615.13;5024159;28;20097;-28
2023/07/14 08:13:41;;;;;;;6.68;2.45;;;;;;;25.04;43.87;101615.78;5025232;28;20619;-28
2023/07/14 08:16:07;;;;;;;4.47;2.38;;;;;;;25.06;44.17;101611.88;5018489;28;20054;-28
2023/07/14 08:18:34;;;;;;;4.22;2.30;;;;;;;25.07;44.45;101623.56;5020547;28;20053;-29
2023/07/14 08:21:01;;;;;;;7.00;2.85;;;;;;;25.07;44.38;101624.41;5021481;28;20061;-28
2023/07/14 08:23:28;;;;;;;9.68;3.10;;;;;;;25.09;44.54;101625.13;5013349;28;20046;-28
2023/07/14 08:25:58;;;;;;;5.50;2.72;;;;;;;25.09;44.06;101625.13;5011789;28;20453;-28
2023/07/14 08:28:26;;;;;;;4.43;2.60;;;;;;;25.10;43.98;101624.06;5012542;28;20092;-28
2023/07/14 08:30:55;;;;;;;4.93;2.63;;;;;;;25.11;44.00;101631.19;5011744;28;20054;-28
2023/07/14 08:33:23;;;;;;;6.82;2.85;;;;;;;25.12;44.40;101615.75;5011486;28;20508;-28
2023/07/14 08:35:51;;;;;;;4.40;2.70;;;;;;;25.13;44.29;101620.16;5013643;28;20385;-28
2023/07/14 08:38:19;;;;;;;4.93;2.50;;;;;;;25.15;44.33;101619.97;5011445;28;20054;-28
2023/07/14 08:41:15;;;;;;;7.63;2.50;;;;;;;25.15;44.33;101615.38;5012169;28;20053;-28
2023/07/14 08:44:31;;;;;;;7.88;2.58;;;;;;;25.16;44.35;101618.94;5003971;28;20323;-28
2023/07/14 08:47:20;;;;;;;7.25;3.30;;;;;;;25.17;44.48;101635.06;4952881;28;20126;-28
2023/07/14 08:49:56;;;;;;;7.85;3.28;;;;;;;25.17;44.25;101628.78;5013566;28;20603;-28
2023/07/14 08:52:27;;;;;;;7.32;2.90;;;;;;;25.18;44.39;101622.34;5013959;28;20390;-28
2023/07/14 08:55:06;;;;;;;8.48;2.70;;;;;;;25.18;44.36;101620.47;5011807;28;20484;-28
2023/07/14 08:57:46;;;;;;;5.60;2.58;;;;;;;25.21;44.20;101620.09;5011800;28;20046;-28
2023/07/14 09:00:20;;;;;;;6.25;2.80;;;;;;;25.23;43.97;101618.03;5011096;28;20057;-28
2023/07/14 09:02:56;;;;;;;6.38;3.00;;;;;;;25.24;43.96;101614.28;5013002;28;20147;-28
2023/07/14 09:05:28;;;;;;;7.00;3.33;;;;;;;25.26;44.43;101619.56;5013075;28;20046;-28
2023/07/14 09:07:55;;;;;;;4.55;2.53;;;;;;;25.28;43.91;101617.47;5011765;28;20058;-28
2023/07/14 09:10:33;;;;;;;9.07;3.33;;;;;;;25.29;44.08;101616.47;5012927;28;20049;-28
2023/07/14 09:13:28;;;;;;;5.45;2.42;;;;;;;25.30;44.15;101619.00;5016539;28;20430;-28
2023/07/14 09:15:56;;;;;;;4.50;2.40;;;;;;;25.34;43.87;101611.34;5012661;28;20046;-28
2023/07/14 09:18:48;;;;;;;4.55;2.40;;;;;;;25.35;43.76;101615.72;5012327;28;20058;-28
2023/07/14 09:21:39;;;;;;;8.23;2.75;;;;;;;25.35;43.95;101603.00;5016205;28;20051;-28
2023/07/14 09:24:20;;;;;;;5.68;2.42;;;;;;;25.37;44.18;101605.56;5016691;28;20429;-29
2023/07/14 09:26:53;;;;;;;6.10;2.35;;;;;;;25.40;44.11;101613.31;5017332;28;20057;-28
2023/07/14 09:29:41;;;;;;;3.33;2.53;;;;;;;25.40;43.75;101601.59;5010640;28;20376;-28
2023/07/14 09:32:32;;;;;;;5.05;2.33;;;;;;;25.41;43.89;101603.28;5010538;28;20059;-28
2023/07/14 09:35:12;;;;;;;6.43;2.78;;;;;;;25.43;43.75;101598.53;5009720;28;20048;-29
2023/07/14 09:38:10;;;;;;;5.05;2.10;;;;;;;25.45;43.42;101600.03;5018869;28;20467;-28
2023/07/14 09:40:40;;;;;;;4.03;2.55;;;;;;;25.46;43.72;101590.88;5000234;28;20072;-28
2023/07/14 09:43:10;;;;;;;5.88;2.25;;;;;;;25.48;43.72;101591.50;5019399;28;20073;-28
2023/07/14 09:45:39;;;;;;;5.60;2.40;;;;;;;25.50;43.67;101594.06;5013771;28;20052;-28
2023/07/14 09:48:16;;;;;;;6.63;2.42;;;;;;;25.50;43.59;101594.88;5016903;28;20048;-29
2023/07/14 09:51:09;;;;;;;3.53;1.92;;;;;;;25.52;43.98;101597.41;5015527;28;20440;-28
2023/07/14 09:53:38;;;;;;;7.38;2.53;;;;;;;25.53;43.65;101599.97;5017953;28;20445;-28
2023/07/14 09:56:29;;;;;;;6.00;2.63;;;;;;;25.53;43.90;101591.81;5015806;28;20050;-29
2023/07/14 09:59:02;;;;;;;4.45;2.40;;;;;;;25.57;43.59;101595.00;5017055;28;20050;-28
2023/07/14 10:01:29;;;;;;;;;;;;;;;25.56;43.48;101583.28;5014227;28;20356;-28
2023/07/14 10:04:07;;;;;;;6.72;2.20;;;;;;;25.62;43.59;101581.72;5014305;28;20277;-28
2023/07/14 10:06:34;;;;;;;4.90;2.10;;;;;;;25.64;43.36;101578.78;5014461;28;20046;-29
2023/07/14 10:09:11;;;;;;;4.70;2.25;;;;;;;25.64;43.55;101576.09;5015310;28;20081;-28
2023/07/14 10:11:42;;;;;;;4.43;2.10;;;;;;;25.65;43.44;101562.34;5013848;28;20061;-28
2023/07/14 10:14:25;;;;;;;5.47;2.63;;;;;;;25.66;43.33;101571.31;5015853;28;20049;-29
2023/07/14 10:16:56;;;;;;;7.55;2.75;;;;;;;25.68;43.50;101561.94;5009965;28;20426;-28
2023/07/14 10:19:39;;;;;;;5.70;2.63;;;;;;;25.69;43.48;101560.06;5011970;28;20050;-28
2023/07/14 10:22:13;;;;;;;4.90;2.30;;;;;;;25.71;43.30;101555.31;5010003;28;20056;-28
2023/07/14 10:24:45;;;;;;;4.32;2.00;;;;;;;25.72;43.29;101556.97;5009642;28;20144;-28
2023/07/14 10:27:16;;;;;;;5.38;2.22;;;;;;;25.71;43.35;101560.72;5005137;28;20045;-28
2023/07/14 10:29:48;;;;;;;4.00;2.30;;;;;;;25.71;43.32;101555.31;5008372;28;20060;-28
2023/07/14 10:32:31;;;;;;;9.53;2.40;;;;;;;25.71;43.08;101558.03;5011075;28;20069;-28
2023/07/14 10:35:11;;;;;;;4.00;2.05;;;;;;;25.73;43.25;101550.50;5011815;28;20044;-28
2023/07/14 10:37:45;;;;;;;3.95;1.80;;;;;;;25.74;43.07;101549.50;5011635;28;20054;-28
2023/07/14 10:40:18;;;;;;;3.70;2.17;;;;;;;25.73;43.07;101542.38;5010222;28;20053;-28
2023/07/14 10:42:48;;;;;;;;;;;;;;;25.72;43.30;101536.09;5014207;28;20058;-28
2023/07/14 10:45:15;;;;;;;2.78;1.80;;;;;;;25.75;42.97;101541.16;5013504;28;20233;-28
2023/07/14 10:47:56;;;;;;;6.00;2.28;;;;;;;25.74;42.66;101538.66;5015001;28;20041;-28
2023/07/14 10:50:36;;;;;;;4.72;1.98;;;;;;;25.73;42.47;101534.22;5013809;28;20245;-28
2023/07/14 10:53:13;;;;;;;6.13;1.90;;;;;;;25.73;42.51;101535.09;5014555;28;20081;-28
2023/07/14 10:55:42;;;;;;;5.53;2.10;;;;;;;25.73;42.37;101520.66;5012779;28;20136;-28
2023/07/14 10:58:18;;;;;;;2.80;1.98;;;;;;;25.73;42.37;101539.66;5010831;28;20050;-28
2023/07/14 11:00:51;;;;;;;5.35;2.45;;;;;;;25.72;42.24;101543.41;5013807;28;20111;-28
2023/07/14 11:03:40;;;;;;;5.43;2.13;;;;;;;25.71;42.10;101537.13;5016402;28;20057;-28
2023/07/14 11:06:24;;;;;;;3.47;2.00;;;;;;;25.71;42.18;101542.56;5018581;28;20046;-28
2023/07/14 11:08:53;;;;;;;5.57;2.47;;;;;;;25.71;42.44;101539.84;5012385;28;20042;-28
2023/07/14 11:11:29;;;;;;;6.07;2.40;;;;;;;25.72;42.29;101535.25;5014459;28;20069;-28
2023/07/14 11:14:09;;;;;;;4.57;2.35;;;;;;;25.71;41.92;101511.84;5018500;28;20057;-28
2023/07/14 11:17:01;;;;;;;5.05;2.00;;;;;;;25.71;42.33;101490.97;5021709;28;20042;-28
2023/07/14 11:19:47;;;;;;;4.43;2.20;;;;;;;25.70;42.56;101485.75;5020311;28;20104;-28
2023/07/14 11:22:44;;;;;;;4.85;2.05;;;;;;;25.71;42.39;101476.56;5018945;28;20049;-29
2023/07/14 11:25:38;;;;;;;6.22;2.60;;;;;;;25.72;42.20;101508.09;5017393;28;20108;-29
2023/07/14 11:28:22;;;;;;;4.40;2.60;;;;;;;25.70;42.31;101505.59;5016857;28;20081;-28
2023/07/14 11:30:52;;;;;;;4.53;2.30;;;;;;;25.71;42.29;101507.25;5019481;28;20108;-28
2023/07/14 11:33:49;;;;;;;4.90;2.05;;;;;;;25.70;42.17;101507.47;5018047;28;20434;-28
2023/07/14 11:36:26;;;;;;;3.80;2.28;;;;;;;25.70;42.16;101489.28;5018206;28;20456;-28
2023/07/14 11:39:38;;;;;;;4.00;2.22;;;;;;;25.69;42.71;101493.06;5017290;28;20447;-29
2023/07/14 11:42:17;;;;;;;4.00;2.13;;;;;;;25.71;42.53;101469.25;5012256;28;20487;-28
2023/07/14 11:44:47;;;;;;;3.42;2.00;;;;;;;25.72;42.39;101465.50;5016791;28;20046;-29
2023/07/14 11:47:37;;;;;;;4.82;2.10;;;;;;;25.72;42.21;101453.78;5016202;28;20133;-29